sensor_id;sensor_type;location;lat;lon;timestamp;pressure;altitude;pressure_sealevel;temperature;humidity
36828;BME280;22766;48.042;11.192;2022-08-11T00:01:05;95516.44;;;14.24;92.46
36828;BME280;22766;48.042;11.192;2022-08-11T00:03:33;95523.44;;;14.23;91.74
36828;BME280;22766;48.042;11.192;2022-08-11T00:06:10;95523.75;;;14.20;91.96
36828;BME280;22766;48.042;11.192;2022-08-11T00:08:40;95515.66;;;14.15;91.97
36828;BME280;22766;48.042;11.192;2022-08-11T00:11:08;95520.19;;;14.05;91.26
36828;BME280;22766;48.042;11.192;2022-08-11T00:13:41;95520.16;;;13.97;93.58
36828;BME280;22766;48.042;11.192;2022-08-11T00:16:19;95518.53;;;13.88;94.54
36828;BME280;22766;48.042;11.192;2022-08-11T00:18:48;95515.91;;;13.80;95.82
36828;BME280;22766;48.042;11.192;2022-08-11T00:21:16;95526.44;;;13.70;96.70
36828;BME280;22766;48.042;11.192;2022-08-11T00:24:04;95531.28;;;13.65;96.59
36828;BME280;22766;48.042;11.192;2022-08-11T00:26:31;95527.38;;;13.61;96.79
36828;BME280;22766;48.042;11.192;2022-08-11T00:29:08;95531.38;;;13.48;98.62
36828;BME280;22766;48.042;11.192;2022-08-11T00:31:35;95530.06;;;13.44;98.96
36828;BME280;22766;48.042;11.192;2022-08-11T00:34:09;95533.91;;;13.32;100.00
36828;BME280;22766;48.042;11.192;2022-08-11T00:37:05;95531.28;;;13.24;100.00
36828;BME280;22766;48.042;11.192;2022-08-11T00:39:35;95524.56;;;13.13;100.00
36828;BME280;22766;48.042;11.192;2022-08-11T00:50:37;95526.81;;;12.82;100.00
36828;BME280;22766;48.042;11.192;2022-08-11T00:53:44;95524.09;;;12.84;100.00
36828;BME280;22766;48.042;11.192;2022-08-11T01:02:55;95526.00;;;12.56;100.00
36828;BME280;22766;48.042;11.192;2022-08-11T01:25:54;95511.97;;;12.41;100.00
36828;BME280;22766;48.042;11.192;2022-08-11T01:43:18;95501.94;;;12.03;100.00
36828;BME280;22766;48.042;11.192;2022-08-11T01:57:59;95497.59;;;11.59;100.00
36828;BME280;22766;48.042;11.192;2022-08-11T02:00:44;95502.91;;;11.57;100.00
36828;BME280;22766;48.042;11.192;2022-08-11T02:03:24;95497.16;;;11.63;100.00
36828;BME280;22766;48.042;11.192;2022-08-11T02:11:46;95497.97;;;11.91;100.00
36828;BME280;22766;48.042;11.192;2022-08-11T02:14:39;95496.84;;;11.93;100.00
36828;BME280;22766;48.042;11.192;2022-08-11T02:17:46;95490.25;;;11.99;100.00
36828;BME280;22766;48.042;11.192;2022-08-11T02:23:32;95489.00;;;12.03;100.00
36828;BME280;22766;48.042;11.192;2022-08-11T02:26:38;95486.56;;;12.01;100.00
36828;BME280;22766;48.042;11.192;2022-08-11T02:29:23;95488.19;;;12.02;100.00
36828;BME280;22766;48.042;11.192;2022-08-11T02:32:06;95479.97;;;12.07;100.00
36828;BME280;22766;48.042;11.192;2022-08-11T02:35:25;95481.63;;;12.08;100.00
36828;BME280;22766;48.042;11.192;2022-08-11T02:43:54;95481.22;;;12.03;100.00
36828;BME280;22766;48.042;11.192;2022-08-11T02:46:31;95484.28;;;11.98;100.00
36828;BME280;22766;48.042;11.192;2022-08-11T02:57:33;95482.06;;;12.03;100.00
36828;BME280;22766;48.042;11.192;2022-08-11T03:00:06;95482.56;;;12.07;100.00
36828;BME280;22766;48.042;11.192;2022-08-11T03:05:46;95483.22;;;12.09;100.00
36828;BME280;22766;48.042;11.192;2022-08-11T03:11:13;95481.75;;;12.06;100.00
36828;BME280;22766;48.042;11.192;2022-08-11T03:17:42;95486.84;;;12.16;100.00
36828;BME280;22766;48.042;11.192;2022-08-11T03:23:52;95483.41;;;12.33;100.00
36828;BME280;22766;48.042;11.192;2022-08-11T03:29:03;95476.69;;;12.40;100.00
36828;BME280;22766;48.042;11.192;2022-08-11T03:31:42;95487.03;;;12.40;100.00
36828;BME280;22766;48.042;11.192;2022-08-11T03:34:21;95486.22;;;12.40;100.00
36828;BME280;22766;48.042;11.192;2022-08-11T03:45:57;95475.81;;;12.57;100.00
36828;BME280;22766;48.042;11.192;2022-08-11T03:51:44;95478.44;;;12.65;100.00
36828;BME280;22766;48.042;11.192;2022-08-11T04:27:30;95478.75;;;12.62;100.00
36828;BME280;22766;48.042;11.192;2022-08-11T04:30:10;95483.78;;;12.64;100.00
36828;BME280;22766;48.042;11.192;2022-08-11T04:39:03;95481.44;;;12.53;100.00
36828;BME280;22766;48.042;11.192;2022-08-11T04:51:53;95482.97;;;12.89;100.00
36828;BME280;22766;48.042;11.192;2022-08-11T05:00:58;95486.84;;;13.19;100.00
36828;BME280;22766;48.042;11.192;2022-08-11T05:10:32;95493.28;;;13.48;100.00
36828;BME280;22766;48.042;11.192;2022-08-11T05:13:09;95492.19;;;13.59;100.00
36828;BME280;22766;48.042;11.192;2022-08-11T05:16:09;95492.84;;;13.69;100.00
36828;BME280;22766;48.042;11.192;2022-08-11T05:18:55;95488.47;;;13.77;100.00
36828;BME280;22766;48.042;11.192;2022-08-11T05:21:47;95495.81;;;13.90;100.00
36828;BME280;22766;48.042;11.192;2022-08-11T05:24:43;95491.78;;;14.03;100.00
36828;BME280;22766;48.042;11.192;2022-08-11T05:27:34;95492.75;;;14.19;100.00
36828;BME280;22766;48.042;11.192;2022-08-11T05:30:26;95494.56;;;14.34;100.00
36828;BME280;22766;48.042;11.192;2022-08-11T05:33:31;95493.91;;;14.48;100.00
36828;BME280;22766;48.042;11.192;2022-08-11T05:36:27;95490.97;;;14.59;99.07
36828;BME280;22766;48.042;11.192;2022-08-11T05:38:58;95492.09;;;14.73;97.98
36828;BME280;22766;48.042;11.192;2022-08-11T05:42:00;95501.00;;;14.86;98.83
36828;BME280;22766;48.042;11.192;2022-08-11T05:45:18;95493.97;;;15.03;96.51
36828;BME280;22766;48.042;11.192;2022-08-11T05:48:30;95488.25;;;15.16;95.95
36828;BME280;22766;48.042;11.192;2022-08-11T05:51:17;95493.72;;;15.29;95.53
36828;BME280;22766;48.042;11.192;2022-08-11T05:54:03;95485.22;;;15.43;94.56
36828;BME280;22766;48.042;11.192;2022-08-11T05:56:57;95488.09;;;15.56;92.89
36828;BME280;22766;48.042;11.192;2022-08-11T05:59:25;95496.47;;;15.74;92.43
36828;BME280;22766;48.042;11.192;2022-08-11T06:02:02;95495.91;;;15.86;90.91
36828;BME280;22766;48.042;11.192;2022-08-11T06:04:30;95489.97;;;16.01;89.76
36828;BME280;22766;48.042;11.192;2022-08-11T06:07:05;95489.50;;;16.20;90.40
36828;BME280;22766;48.042;11.192;2022-08-11T06:12:18;95486.13;;;16.34;86.64
36828;BME280;22766;48.042;11.192;2022-08-11T06:14:55;95494.31;;;16.45;86.80
36828;BME280;22766;48.042;11.192;2022-08-11T06:17:24;95488.91;;;16.55;86.73
36828;BME280;22766;48.042;11.192;2022-08-11T06:20:06;95490.19;;;16.73;84.59
36828;BME280;22766;48.042;11.192;2022-08-11T06:22:35;95490.94;;;16.82;82.44
36828;BME280;22766;48.042;11.192;2022-08-11T06:25:03;95487.69;;;16.95;82.53
36828;BME280;22766;48.042;11.192;2022-08-11T06:27:33;95487.25;;;16.91;82.50
36828;BME280;22766;48.042;11.192;2022-08-11T06:30:01;95488.34;;;17.11;81.85
36828;BME280;22766;48.042;11.192;2022-08-11T06:32:31;95494.47;;;17.18;82.44
36828;BME280;22766;48.042;11.192;2022-08-11T06:35:06;95496.16;;;17.40;81.92
36828;BME280;22766;48.042;11.192;2022-08-11T06:43:20;95484.78;;;17.77;79.54
36828;BME280;22766;48.042;11.192;2022-08-11T06:45:59;95487.34;;;17.92;77.22
36828;BME280;22766;48.042;11.192;2022-08-11T06:48:31;95494.38;;;18.12;75.63
36828;BME280;22766;48.042;11.192;2022-08-11T06:51:01;95492.47;;;18.21;74.78
36828;BME280;22766;48.042;11.192;2022-08-11T06:53:51;95495.16;;;18.27;76.44
36828;BME280;22766;48.042;11.192;2022-08-11T06:56:35;95494.72;;;18.45;74.17
36828;BME280;22766;48.042;11.192;2022-08-11T06:59:43;95499.75;;;18.67;73.77
36828;BME280;22766;48.042;11.192;2022-08-11T07:02:31;95497.69;;;18.84;70.82
36828;BME280;22766;48.042;11.192;2022-08-11T07:05:09;95495.19;;;19.04;69.33
36828;BME280;22766;48.042;11.192;2022-08-11T07:13:55;95494.84;;;19.41;67.18
36828;BME280;22766;48.042;11.192;2022-08-11T07:16:44;95496.41;;;19.83;64.04
36828;BME280;22766;48.042;11.192;2022-08-11T07:19:17;95495.66;;;20.02;63.97
36828;BME280;22766;48.042;11.192;2022-08-11T07:22:05;95478.94;;;20.09;62.23
36828;BME280;22766;48.042;11.192;2022-08-11T07:25:00;95488.72;;;20.41;62.52
36828;BME280;22766;48.042;11.192;2022-08-11T07:27:51;95488.50;;;20.69;59.55
36828;BME280;22766;48.042;11.192;2022-08-11T07:30:41;95487.09;;;20.93;56.12
36828;BME280;22766;48.042;11.192;2022-08-11T07:33:09;95485.47;;;20.92;55.98
36828;BME280;22766;48.042;11.192;2022-08-11T07:36:00;95478.63;;;21.04;55.25
36828;BME280;22766;48.042;11.192;2022-08-11T07:38:39;95483.22;;;21.34;56.33
36828;BME280;22766;48.042;11.192;2022-08-11T07:41:15;95477.56;;;21.31;55.53
36828;BME280;22766;48.042;11.192;2022-08-11T07:43:45;95484.19;;;21.33;55.55
36828;BME280;22766;48.042;11.192;2022-08-11T07:46:15;95476.88;;;21.49;53.92
36828;BME280;22766;48.042;11.192;2022-08-11T07:49:06;95486.16;;;21.58;53.29
36828;BME280;22766;48.042;11.192;2022-08-11T07:51:53;95479.00;;;21.71;52.34
36828;BME280;22766;48.042;11.192;2022-08-11T07:54:39;95482.06;;;21.68;53.01
36828;BME280;22766;48.042;11.192;2022-08-11T07:57:08;95484.88;;;21.86;51.02
36828;BME280;22766;48.042;11.192;2022-08-11T08:00:14;95490.50;;;21.90;51.68
36828;BME280;22766;48.042;11.192;2022-08-11T08:03:01;95481.84;;;22.20;51.42
36828;BME280;22766;48.042;11.192;2022-08-11T08:05:49;95480.59;;;22.23;50.60
36828;BME280;22766;48.042;11.192;2022-08-11T08:08:55;95475.38;;;22.48;49.63
36828;BME280;22766;48.042;11.192;2022-08-11T08:11:42;95481.09;;;22.38;51.57
36828;BME280;22766;48.042;11.192;2022-08-11T08:14:29;95474.56;;;22.78;48.61
36828;BME280;22766;48.042;11.192;2022-08-11T08:17:14;95478.34;;;22.89;49.28
36828;BME280;22766;48.042;11.192;2022-08-11T08:20:01;95477.25;;;22.72;49.00
36828;BME280;22766;48.042;11.192;2022-08-11T08:22:29;95478.13;;;22.66;47.70
36828;BME280;22766;48.042;11.192;2022-08-11T08:25:05;95479.03;;;22.47;49.38
36828;BME280;22766;48.042;11.192;2022-08-11T08:27:34;95478.41;;;22.76;48.19
36828;BME280;22766;48.042;11.192;2022-08-11T08:30:04;95477.03;;;22.73;48.43
36828;BME280;22766;48.042;11.192;2022-08-11T08:32:50;95480.66;;;22.97;48.43
36828;BME280;22766;48.042;11.192;2022-08-11T08:35:18;95478.78;;;23.04;49.33
36828;BME280;22766;48.042;11.192;2022-08-11T08:37:45;95478.63;;;22.99;48.31
36828;BME280;22766;48.042;11.192;2022-08-11T08:40:13;95472.28;;;22.82;49.43
36828;BME280;22766;48.042;11.192;2022-08-11T08:42:49;95475.72;;;23.07;49.10
36828;BME280;22766;48.042;11.192;2022-08-11T08:45:19;95478.09;;;23.69;48.16
36828;BME280;22766;48.042;11.192;2022-08-11T08:50:28;95475.41;;;23.58;46.88
36828;BME280;22766;48.042;11.192;2022-08-11T08:53:23;95480.25;;;23.61;46.67
36828;BME280;22766;48.042;11.192;2022-08-11T08:55:55;95477.09;;;23.70;46.72
36828;BME280;22766;48.042;11.192;2022-08-11T08:58:24;95477.25;;;23.57;48.13
36828;BME280;22766;48.042;11.192;2022-08-11T09:00:53;95476.00;;;23.60;47.39
36828;BME280;22766;48.042;11.192;2022-08-11T09:03:21;95477.31;;;23.51;46.19
36828;BME280;22766;48.042;11.192;2022-08-11T09:06:08;95469.94;;;24.07;46.81
36828;BME280;22766;48.042;11.192;2022-08-11T09:08:35;95474.47;;;24.18;46.41
36828;BME280;22766;48.042;11.192;2022-08-11T09:11:06;95471.09;;;24.41;43.82
36828;BME280;22766;48.042;11.192;2022-08-11T09:13:53;95471.81;;;24.59;44.07
36828;BME280;22766;48.042;11.192;2022-08-11T09:16:32;95469.91;;;24.25;42.92
36828;BME280;22766;48.042;11.192;2022-08-11T09:19:00;95474.56;;;24.53;43.50
36828;BME280;22766;48.042;11.192;2022-08-11T09:21:27;95479.25;;;24.80;41.92
36828;BME280;22766;48.042;11.192;2022-08-11T09:24:16;95483.78;;;24.73;43.27
36828;BME280;22766;48.042;11.192;2022-08-11T09:27:05;95490.06;;;24.61;42.61
36828;BME280;22766;48.042;11.192;2022-08-11T09:29:32;95476.53;;;24.69;42.83
36828;BME280;22766;48.042;11.192;2022-08-11T09:32:00;95482.00;;;24.97;42.43
36828;BME280;22766;48.042;11.192;2022-08-11T09:34:28;95480.41;;;24.96;42.57
36828;BME280;22766;48.042;11.192;2022-08-11T09:36:55;95486.38;;;24.91;42.96
36828;BME280;22766;48.042;11.192;2022-08-11T09:40:00;95486.59;;;25.02;42.11
36828;BME280;22766;48.042;11.192;2022-08-11T09:43:12;95484.97;;;25.00;41.47
36828;BME280;22766;48.042;11.192;2022-08-11T09:46:00;95485.31;;;25.04;41.14
36828;BME280;22766;48.042;11.192;2022-08-11T09:48:30;95483.16;;;25.36;43.33
36828;BME280;22766;48.042;11.192;2022-08-11T09:51:00;95482.22;;;25.42;42.18
36828;BME280;22766;48.042;11.192;2022-08-11T09:53:35;95490.03;;;25.60;41.95
36828;BME280;22766;48.042;11.192;2022-08-11T09:56:17;95481.72;;;25.79;41.25
36828;BME280;22766;48.042;11.192;2022-08-11T09:59:04;95483.25;;;25.64;39.33
36828;BME280;22766;48.042;11.192;2022-08-11T10:01:35;95476.72;;;25.20;40.07
36828;BME280;22766;48.042;11.192;2022-08-11T10:06:38;95479.72;;;25.47;41.69
36828;BME280;22766;48.042;11.192;2022-08-11T10:09:24;95470.03;;;25.29;41.16
36828;BME280;22766;48.042;11.192;2022-08-11T10:11:55;95485.97;;;25.69;41.27
36828;BME280;22766;48.042;11.192;2022-08-11T10:14:25;95473.91;;;25.73;41.05
36828;BME280;22766;48.042;11.192;2022-08-11T10:17:16;95473.84;;;25.96;41.07
36828;BME280;22766;48.042;11.192;2022-08-11T10:19:48;95477.66;;;25.88;39.76
36828;BME280;22766;48.042;11.192;2022-08-11T10:22:34;95464.16;;;26.02;42.08
36828;BME280;22766;48.042;11.192;2022-08-11T10:25:38;95451.09;;;26.40;42.15
36828;BME280;22766;48.042;11.192;2022-08-11T10:28:26;95446.94;;;26.60;38.70
36828;BME280;22766;48.042;11.192;2022-08-11T10:31:05;95453.31;;;26.59;40.72
36828;BME280;22766;48.042;11.192;2022-08-11T10:34:11;95450.22;;;26.67;40.83
36828;BME280;22766;48.042;11.192;2022-08-11T10:36:40;95446.47;;;26.47;38.91
36828;BME280;22766;48.042;11.192;2022-08-11T10:39:09;95443.81;;;26.47;39.14
36828;BME280;22766;48.042;11.192;2022-08-11T10:41:44;95449.09;;;26.47;39.71
36828;BME280;22766;48.042;11.192;2022-08-11T10:44:38;95445.13;;;26.61;39.06
36828;BME280;22766;48.042;11.192;2022-08-11T10:47:10;95441.44;;;26.95;38.09
36828;BME280;22766;48.042;11.192;2022-08-11T10:49:56;95442.53;;;26.66;37.31
36828;BME280;22766;48.042;11.192;2022-08-11T10:52:43;95431.63;;;26.96;36.59
36828;BME280;22766;48.042;11.192;2022-08-11T10:55:31;95426.50;;;26.89;37.17
36828;BME280;22766;48.042;11.192;2022-08-11T10:58:17;95429.53;;;26.98;37.53
36828;BME280;22766;48.042;11.192;2022-08-11T11:01:03;95433.41;;;27.28;38.03
36828;BME280;22766;48.042;11.192;2022-08-11T11:03:31;95431.44;;;27.35;37.50
36828;BME280;22766;48.042;11.192;2022-08-11T11:06:07;95429.09;;;27.22;36.13
36828;BME280;22766;48.042;11.192;2022-08-11T11:09:02;95429.13;;;27.06;37.26
36828;BME280;22766;48.042;11.192;2022-08-11T11:11:35;95428.91;;;27.29;35.43
36828;BME280;22766;48.042;11.192;2022-08-11T11:14:24;95424.13;;;27.26;36.14
36828;BME280;22766;48.042;11.192;2022-08-11T11:17:26;95426.91;;;27.36;34.97
36828;BME280;22766;48.042;11.192;2022-08-11T11:20:15;95420.34;;;27.05;35.36
36828;BME280;22766;48.042;11.192;2022-08-11T11:23:08;95429.41;;;27.26;35.46
36828;BME280;22766;48.042;11.192;2022-08-11T11:25:59;95422.31;;;27.69;35.72
36828;BME280;22766;48.042;11.192;2022-08-11T11:32:11;95419.09;;;28.42;33.49
36828;BME280;22766;48.042;11.192;2022-08-11T11:37:22;95414.69;;;28.85;32.20
36828;BME280;22766;48.042;11.192;2022-08-11T11:39:49;95413.13;;;29.25;31.78
36828;BME280;22766;48.042;11.192;2022-08-11T11:42:17;95416.13;;;29.44;32.36
36828;BME280;22766;48.042;11.192;2022-08-11T11:44:44;95403.56;;;29.91;31.27
36828;BME280;22766;48.042;11.192;2022-08-11T11:47:12;95402.00;;;30.20;30.09
36828;BME280;22766;48.042;11.192;2022-08-11T11:49:43;95392.75;;;30.58;29.99
36828;BME280;22766;48.042;11.192;2022-08-11T11:52:15;95398.78;;;31.44;28.83
36828;BME280;22766;48.042;11.192;2022-08-11T11:54:45;95391.16;;;30.67;30.28
36828;BME280;22766;48.042;11.192;2022-08-11T11:57:17;95391.81;;;31.53;28.73
36828;BME280;22766;48.042;11.192;2022-08-11T12:00:05;95398.34;;;30.97;28.79
36828;BME280;22766;48.042;11.192;2022-08-11T12:03:01;95397.97;;;31.49;28.63
36828;BME280;22766;48.042;11.192;2022-08-11T12:05:30;95395.22;;;31.64;28.99
36828;BME280;22766;48.042;11.192;2022-08-11T12:08:00;95393.16;;;32.53;27.76
36828;BME280;22766;48.042;11.192;2022-08-11T12:10:55;95393.53;;;32.37;28.42
36828;BME280;22766;48.042;11.192;2022-08-11T12:13:44;95390.63;;;33.00;26.80
36828;BME280;22766;48.042;11.192;2022-08-11T12:16:13;95392.59;;;32.85;26.53
36828;BME280;22766;48.042;11.192;2022-08-11T12:19:07;95390.25;;;33.36;26.14
36828;BME280;22766;48.042;11.192;2022-08-11T12:21:38;95397.94;;;33.42;26.18
36828;BME280;22766;48.042;11.192;2022-08-11T12:24:28;95383.97;;;33.22;27.00
36828;BME280;22766;48.042;11.192;2022-08-11T12:27:14;95387.19;;;32.95;27.02
36828;BME280;22766;48.042;11.192;2022-08-11T12:29:57;95387.69;;;33.91;26.50
36828;BME280;22766;48.042;11.192;2022-08-11T12:32:35;95381.75;;;33.76;25.88
36828;BME280;22766;48.042;11.192;2022-08-11T12:35:03;95378.22;;;33.80;25.68
36828;BME280;22766;48.042;11.192;2022-08-11T12:37:35;95374.97;;;34.39;26.56
36828;BME280;22766;48.042;11.192;2022-08-11T12:40:07;95378.56;;;34.53;24.20
36828;BME280;22766;48.042;11.192;2022-08-11T12:43:16;95372.63;;;33.58;25.57
36828;BME280;22766;48.042;11.192;2022-08-11T12:46:07;95371.81;;;34.19;25.73
36828;BME280;22766;48.042;11.192;2022-08-11T12:48:44;95371.44;;;34.07;24.87
36828;BME280;22766;48.042;11.192;2022-08-11T12:51:35;95371.63;;;33.49;25.00
36828;BME280;22766;48.042;11.192;2022-08-11T12:57:31;95369.44;;;34.17;24.39
36828;BME280;22766;48.042;11.192;2022-08-11T13:00:18;95352.56;;;33.93;23.70
36828;BME280;22766;48.042;11.192;2022-08-11T13:03:07;95353.00;;;34.74;25.25
36828;BME280;22766;48.042;11.192;2022-08-11T13:05:58;95346.91;;;35.69;22.87
36828;BME280;22766;48.042;11.192;2022-08-11T13:08:27;95349.91;;;35.54;22.44
36828;BME280;22766;48.042;11.192;2022-08-11T13:10:57;95353.00;;;35.47;22.87
36828;BME280;22766;48.042;11.192;2022-08-11T13:13:46;95351.72;;;34.86;23.01
36828;BME280;22766;48.042;11.192;2022-08-11T13:16:30;95346.09;;;35.28;22.38
36828;BME280;22766;48.042;11.192;2022-08-11T13:18:58;95351.28;;;34.78;23.64
36828;BME280;22766;48.042;11.192;2022-08-11T13:21:27;95346.31;;;35.45;22.70
36828;BME280;22766;48.042;11.192;2022-08-11T13:23:54;95337.66;;;35.75;21.85
36828;BME280;22766;48.042;11.192;2022-08-11T13:26:29;95343.16;;;36.06;21.04
36828;BME280;22766;48.042;11.192;2022-08-11T13:29:20;95349.84;;;35.95;21.04
36828;BME280;22766;48.042;11.192;2022-08-11T13:31:48;95342.38;;;36.05;22.48
36828;BME280;22766;48.042;11.192;2022-08-11T13:34:16;95346.91;;;35.83;22.44
36828;BME280;22766;48.042;11.192;2022-08-11T13:36:50;95343.91;;;35.03;22.20
36828;BME280;22766;48.042;11.192;2022-08-11T13:39:18;95333.78;;;35.13;23.25
36828;BME280;22766;48.042;11.192;2022-08-11T13:41:47;95343.22;;;34.78;22.80
36828;BME280;22766;48.042;11.192;2022-08-11T13:44:16;95339.53;;;34.42;22.55
36828;BME280;22766;48.042;11.192;2022-08-11T13:46:50;95327.66;;;33.32;23.80
36828;BME280;22766;48.042;11.192;2022-08-11T13:49:19;95323.47;;;34.88;23.24
36828;BME280;22766;48.042;11.192;2022-08-11T13:51:46;95327.72;;;35.35;21.85
36828;BME280;22766;48.042;11.192;2022-08-11T13:54:20;95335.06;;;35.43;21.80
36828;BME280;22766;48.042;11.192;2022-08-11T13:56:51;95337.53;;;35.39;22.23
36828;BME280;22766;48.042;11.192;2022-08-11T13:59:19;95328.09;;;35.42;21.37
36828;BME280;22766;48.042;11.192;2022-08-11T14:01:54;95328.59;;;35.30;21.34
36828;BME280;22766;48.042;11.192;2022-08-11T14:07:21;95323.22;;;35.30;21.94
36828;BME280;22766;48.042;11.192;2022-08-11T14:09:55;95324.16;;;35.26;22.10
36828;BME280;22766;48.042;11.192;2022-08-11T14:12:25;95317.72;;;34.81;22.44
36828;BME280;22766;48.042;11.192;2022-08-11T14:15:15;95308.00;;;35.39;22.65
36828;BME280;22766;48.042;11.192;2022-08-11T14:17:50;95307.81;;;34.95;21.91
36828;BME280;22766;48.042;11.192;2022-08-11T14:20:19;95312.59;;;35.25;22.51
36828;BME280;22766;48.042;11.192;2022-08-11T14:23:08;95318.09;;;34.74;21.99
36828;BME280;22766;48.042;11.192;2022-08-11T14:25:38;95313.88;;;34.55;21.78
36828;BME280;22766;48.042;11.192;2022-08-11T14:28:30;95310.53;;;34.12;22.62
36828;BME280;22766;48.042;11.192;2022-08-11T14:31:09;95317.06;;;35.03;22.07
36828;BME280;22766;48.042;11.192;2022-08-11T14:33:37;95311.69;;;35.70;21.50
36828;BME280;22766;48.042;11.192;2022-08-11T14:36:25;95318.34;;;35.73;20.70
36828;BME280;22766;48.042;11.192;2022-08-11T14:38:54;95307.94;;;36.07;20.92
36828;BME280;22766;48.042;11.192;2022-08-11T14:41:22;95316.63;;;36.48;20.04
36828;BME280;22766;48.042;11.192;2022-08-11T14:44:29;95314.13;;;36.83;19.85
36828;BME280;22766;48.042;11.192;2022-08-11T14:47:17;95305.59;;;37.11;19.25
36828;BME280;22766;48.042;11.192;2022-08-11T14:49:55;95309.66;;;36.78;19.26
36828;BME280;22766;48.042;11.192;2022-08-11T14:52:39;95311.91;;;36.54;19.90
36828;BME280;22766;48.042;11.192;2022-08-11T14:55:09;95313.97;;;35.23;20.52
36828;BME280;22766;48.042;11.192;2022-08-11T14:57:56;95306.13;;;34.35;22.13
36828;BME280;22766;48.042;11.192;2022-08-11T15:00:24;95305.34;;;34.53;21.56
36828;BME280;22766;48.042;11.192;2022-08-11T15:02:52;95306.13;;;34.35;21.88
36828;BME280;22766;48.042;11.192;2022-08-11T15:05:57;95311.03;;;33.35;22.88
36828;BME280;22766;48.042;11.192;2022-08-11T15:08:30;95295.91;;;32.39;24.38
36828;BME280;22766;48.042;11.192;2022-08-11T15:11:18;95303.63;;;31.09;25.83
36828;BME280;22766;48.042;11.192;2022-08-11T15:14:07;95295.84;;;31.23;26.78
36828;BME280;22766;48.042;11.192;2022-08-11T15:16:36;95299.63;;;31.07;27.02
36828;BME280;22766;48.042;11.192;2022-08-11T15:19:22;95291.25;;;31.44;26.41
36828;BME280;22766;48.042;11.192;2022-08-11T15:21:50;95290.72;;;32.24;24.09
36828;BME280;22766;48.042;11.192;2022-08-11T15:24:36;95291.19;;;31.97;25.21
36828;BME280;22766;48.042;11.192;2022-08-11T15:27:22;95299.50;;;32.63;25.29
36828;BME280;22766;48.042;11.192;2022-08-11T15:30:09;95292.28;;;32.87;24.93
36828;BME280;22766;48.042;11.192;2022-08-11T15:33:02;95292.13;;;33.02;23.94
36828;BME280;22766;48.042;11.192;2022-08-11T15:35:50;95287.91;;;32.44;23.97
36828;BME280;22766;48.042;11.192;2022-08-11T15:38:41;95287.94;;;33.62;22.72
36828;BME280;22766;48.042;11.192;2022-08-11T15:41:12;95286.81;;;33.45;23.79
36828;BME280;22766;48.042;11.192;2022-08-11T15:44:10;95278.28;;;33.80;22.79
36828;BME280;22766;48.042;11.192;2022-08-11T15:47:22;95275.72;;;34.26;22.15
36828;BME280;22766;48.042;11.192;2022-08-11T15:49:53;95286.41;;;33.93;22.47
36828;BME280;22766;48.042;11.192;2022-08-11T15:52:46;95273.97;;;34.03;22.22
36828;BME280;22766;48.042;11.192;2022-08-11T15:55:16;95274.78;;;34.95;21.69
36828;BME280;22766;48.042;11.192;2022-08-11T15:57:46;95274.66;;;34.08;21.67
36828;BME280;22766;48.042;11.192;2022-08-11T16:00:35;95274.22;;;33.45;22.29
36828;BME280;22766;48.042;11.192;2022-08-11T16:03:35;95271.66;;;33.17;22.90
36828;BME280;22766;48.042;11.192;2022-08-11T16:06:35;95276.13;;;33.21;21.99
36828;BME280;22766;48.042;11.192;2022-08-11T16:09:06;95264.75;;;33.11;22.71
36828;BME280;22766;48.042;11.192;2022-08-11T16:11:45;95267.28;;;32.45;22.96
36828;BME280;22766;48.042;11.192;2022-08-11T16:14:14;95266.75;;;31.75;24.15
36828;BME280;22766;48.042;11.192;2022-08-11T16:17:02;95265.66;;;31.27;24.24
36828;BME280;22766;48.042;11.192;2022-08-11T16:19:32;95257.16;;;31.69;24.66
36828;BME280;22766;48.042;11.192;2022-08-11T16:22:08;95254.22;;;32.09;23.22
36828;BME280;22766;48.042;11.192;2022-08-11T16:24:38;95250.25;;;32.64;23.08
36828;BME280;22766;48.042;11.192;2022-08-11T16:27:31;95255.19;;;31.46;24.27
36828;BME280;22766;48.042;11.192;2022-08-11T16:30:01;95253.22;;;31.62;24.78
36828;BME280;22766;48.042;11.192;2022-08-11T16:32:30;95257.91;;;31.31;25.17
36828;BME280;22766;48.042;11.192;2022-08-11T16:35:03;95248.22;;;31.89;24.43
36828;BME280;22766;48.042;11.192;2022-08-11T16:37:50;95250.94;;;30.61;26.33
36828;BME280;22766;48.042;11.192;2022-08-11T16:40:37;95250.47;;;30.14;25.93
36828;BME280;22766;48.042;11.192;2022-08-11T16:43:06;95251.28;;;29.99;26.20
36828;BME280;22766;48.042;11.192;2022-08-11T16:45:53;95247.53;;;30.00;27.12
36828;BME280;22766;48.042;11.192;2022-08-11T16:48:41;95247.19;;;29.57;27.47
36828;BME280;22766;48.042;11.192;2022-08-11T16:51:11;95246.91;;;28.76;28.19
36828;BME280;22766;48.042;11.192;2022-08-11T16:53:39;95250.75;;;27.85;29.47
36828;BME280;22766;48.042;11.192;2022-08-11T16:56:52;95254.06;;;27.39;29.99
36828;BME280;22766;48.042;11.192;2022-08-11T16:59:26;95253.66;;;26.82;30.50
36828;BME280;22766;48.042;11.192;2022-08-11T17:02:00;95249.06;;;26.39;31.22
36828;BME280;22766;48.042;11.192;2022-08-11T17:04:50;95255.91;;;26.02;31.23
36828;BME280;22766;48.042;11.192;2022-08-11T17:07:38;95258.22;;;25.65;32.08
36828;BME280;22766;48.042;11.192;2022-08-11T17:10:40;95265.53;;;25.19;32.62
36828;BME280;22766;48.042;11.192;2022-08-11T17:16:10;95271.69;;;24.96;32.05
36828;BME280;22766;48.042;11.192;2022-08-11T17:18:50;95271.34;;;24.92;32.37
36828;BME280;22766;48.042;11.192;2022-08-11T17:21:32;95272.31;;;24.75;32.41
36828;BME280;22766;48.042;11.192;2022-08-11T17:24:02;95272.88;;;24.65;33.15
36828;BME280;22766;48.042;11.192;2022-08-11T17:29:34;95268.31;;;24.26;35.28